.
WxDataArchive / Data Records for 2012-05-11
2012-05-10 May 2012 2012-05-12

Data Records for Friday, 11 May 2012

Time	Temp	Chill	HIndex	Humid	Dewpt	 Wind 	HiWind	WindDir	Rain 	Barom 
-----	----	-----	------	-----	-----	------	------	-------	-----	----- 
00:00	48.6	48.6	48.6	68	38.5	0	0	---	0.00	30.030 
00:05	48.5	48.5	48.5	68	38.4	0	0	---	0.00	30.030 
00:10	48.3	48.3	48.3	68	38.2	0	0	---	0.00	30.030 
00:15	48.2	48.2	48.2	69	38.5	0	0	---	0.00	30.031 
00:20	48.0	48.0	48.0	70	38.7	0	0	---	0.00	30.031 
00:25	47.7	47.7	47.7	70	38.4	0	0	---	0.00	30.031 
00:30	47.6	47.6	47.6	71	38.7	0	0	---	0.00	30.032 
00:35	47.3	47.3	47.3	72	38.7	0	0	---	0.00	30.032 
00:40	47.1	47.1	47.1	72	38.5	0	0	---	0.00	30.032 
00:45	47.0	47.0	47.0	72	38.4	0	0	---	0.00	30.041 
00:50	46.8	46.8	46.8	73	38.6	0	0	---	0.00	30.041 
00:55	46.7	46.7	46.7	73	38.5	0	0	---	0.00	30.041 
01:00	46.5	46.5	46.5	73	38.3	0	0	---	0.00	30.042 
01:05	46.4	46.4	46.4	74	38.6	0	0	---	0.00	30.042 
01:10	46.2	46.2	46.2	74	38.4	0	0	---	0.00	30.042 
01:15	46.0	46.0	46.0	74	38.2	0	0	---	0.00	30.044 
01:20	45.8	45.8	45.8	75	38.3	0	0	---	0.00	30.044 
01:25	45.7	45.7	45.7	75	38.2	0	0	---	0.00	30.044 
01:30	45.5	45.5	45.5	76	38.4	0	0	---	0.00	30.045 
01:35	45.4	45.4	45.4	77	38.6	0	0	---	0.00	30.045 
01:40	45.4	45.4	45.4	77	38.6	0	0	---	0.00	30.045 
01:45	45.2	45.2	45.2	77	38.4	0	0	---	0.00	30.048 
01:50	45.2	45.2	45.2	78	38.8	0	0	---	0.00	30.048 
01:55	45.1	45.1	45.1	78	38.7	0	0	---	0.00	30.048 
02:00	44.9	44.9	44.9	78	38.5	0	0	---	0.00	30.051 
02:05	44.8	44.8	44.8	79	38.7	0	0	---	0.00	30.051 
02:10	44.6	44.6	44.6	79	38.5	0	0	---	0.00	30.051 
02:15	44.5	44.5	44.5	79	38.4	0	0	---	0.00	30.053 
02:20	44.5	44.5	44.5	80	38.7	0	0	---	0.00	30.053 
02:25	44.3	44.3	44.3	80	38.5	0	0	---	0.00	30.053 
02:30	44.3	44.3	44.3	80	38.5	0	0	---	0.00	30.060 
02:35	44.2	44.2	44.2	81	38.7	0	0	---	0.00	30.060 
02:40	44.2	44.2	44.2	81	38.7	0	0	---	0.00	30.060 
02:45	44.3	44.3	44.3	81	38.8	0	0	---	0.00	30.062 
02:50	44.3	44.3	44.3	81	38.8	0	0	---	0.00	30.062 
02:55	44.2	44.2	44.2	81	38.7	0	0	---	0.00	30.062 
03:00	44.1	44.1	44.1	82	39.0	0	0	---	0.00	30.062 
03:05	43.9	43.9	43.9	82	38.8	0	0	---	0.00	30.062 
03:10	43.6	43.6	43.6	82	38.5	0	0	---	0.00	30.062 
03:15	43.5	43.5	43.5	82	38.4	0	0	---	0.00	30.062 
03:20	43.2	43.2	43.2	83	38.4	0	0	---	0.00	30.062 
03:25	43.1	43.1	43.1	83	38.3	0	0	---	0.00	30.062 
03:30	42.8	42.8	42.8	84	38.3	0	0	---	0.00	30.063 
03:35	42.6	42.6	42.6	84	38.1	0	0	---	0.00	30.063 
03:40	42.3	42.3	42.3	84	37.8	0	0	---	0.00	30.063 
03:45	42.2	42.2	42.2	85	38.0	0	0	---	0.00	30.070 
03:50	42.1	42.1	42.1	85	37.9	0	0	---	0.00	30.070 
03:55	42.1	42.1	42.1	86	38.2	0	0	---	0.00	30.070 
04:00	42.1	42.1	42.1	86	38.2	0	0	---	0.00	30.072 
04:05	41.9	41.9	41.9	86	38.0	0	0	---	0.00	30.072 
04:10	41.9	41.9	41.9	86	38.0	0	0	---	0.00	30.072 
04:15	41.8	41.8	41.8	87	38.2	0	0	---	0.00	30.076 
04:20	41.6	41.6	41.6	87	38.0	0	0	---	0.00	30.076 
04:25	41.5	41.5	41.5	87	37.9	0	0	---	0.00	30.076 
04:30	41.5	41.5	41.5	87	37.9	0	0	---	0.00	30.078 
04:35	41.5	41.5	41.5	87	37.9	0	0	---	0.00	30.078 
04:40	41.3	41.3	41.3	87	37.7	0	0	---	0.00	30.078 
04:45	41.2	41.2	41.2	87	37.6	0	0	---	0.00	30.081 
04:50	41.1	41.1	41.1	87	37.5	0	0	---	0.00	30.081 
04:55	40.9	40.9	40.9	88	37.6	0	0	---	0.00	30.081 
05:00	40.9	40.9	40.9	88	37.6	0	0	---	0.00	30.086 
05:05	40.8	40.8	40.8	88	37.5	0	0	---	0.00	30.086 
05:10	40.6	40.6	40.6	88	37.3	0	0	---	0.00	30.086 
05:15	40.5	40.5	40.5	88	37.2	0	0	---	0.00	30.094 
05:20	40.5	40.5	40.5	88	37.2	0	0	---	0.00	30.094 
05:25	40.5	40.5	40.5	88	37.2	0	0	---	0.00	30.094 
05:30	40.3	40.3	40.3	88	37.0	0	0	---	0.00	30.098 
05:35	40.2	40.2	40.2	89	37.2	0	0	---	0.00	30.098 
05:40	40.2	40.2	40.2	89	37.2	0	0	---	0.00	30.098 
05:45	40.2	40.2	40.2	89	37.2	0	0	---	0.00	30.101 
05:50	40.1	40.1	40.1	89	37.1	0	0	---	0.00	30.101 
05:55	40.1	40.1	40.1	89	37.1	0	0	---	0.00	30.101 
06:00	39.9	39.9	39.9	90	37.2	0	0	---	0.00	30.111 
06:05	39.8	39.8	39.8	90	37.1	0	0	---	0.00	30.111 
06:10	39.6	39.6	39.6	90	36.9	0	0	---	0.00	30.111 
06:15	39.6	39.6	39.6	90	36.9	0	0	---	0.00	30.113 
06:20	39.5	39.5	39.5	90	36.8	0	0	---	0.00	30.113 
06:25	39.3	39.3	39.3	90	36.6	0	0	---	0.00	30.113 
06:30	39.3	39.3	39.3	90	36.6	0	0	---	0.00	30.116 
06:35	39.3	39.3	39.3	90	36.6	0	0	---	0.00	30.116 
06:40	39.3	39.3	39.3	91	36.9	0	0	---	0.00	30.116 
06:45	39.2	39.2	39.2	91	36.8	0	0	---	0.00	30.121 
06:50	39.2	39.2	39.2	91	36.8	0	0	---	0.00	30.121 
06:55	39.2	39.2	39.2	91	36.8	0	0	---	0.00	30.121 
07:00	39.3	39.3	39.3	91	36.9	0	0	---	0.00	30.128 
07:05	39.3	39.3	39.3	92	37.2	0	0	---	0.00	30.128 
07:10	39.6	39.6	39.6	92	37.5	0	0	---	0.00	30.128 
07:15	39.9	39.9	39.9	92	37.8	0	0	---	0.00	30.131 
07:20	40.2	40.2	40.2	92	38.1	0	0	---	0.00	30.131 
07:25	40.5	40.5	40.5	92	38.4	0	0	---	0.00	30.131 
07:30	40.9	40.9	40.9	92	38.8	0	0	---	0.00	30.138 
07:35	41.3	41.3	41.3	92	39.2	0	0	---	0.00	30.138 
07:40	42.1	42.1	42.1	93	40.2	0	0	---	0.00	30.138 
07:45	42.8	42.8	42.8	93	40.9	0	0	---	0.00	30.142 
07:50	43.6	43.6	43.6	93	41.7	0	0	---	0.00	30.142 
07:55	44.9	44.9	44.9	93	43.0	0	0	---	0.00	30.142 
08:00	46.7	46.7	46.7	92	44.5	0	0	---	0.00	30.139 
08:05	48.3	48.3	48.3	87	44.6	0	0	---	0.00	30.139 
08:10	49.9	49.9	49.9	82	44.6	0	0	---	0.00	30.139 
08:15	51.3	51.3	51.3	76	44.0	0	1	270	0.00	30.143 
08:20	52.2	52.2	52.2	74	44.2	0	0	---	0.00	30.143 
08:25	52.3	52.3	52.3	73	43.9	0	1	270	0.00	30.143 
08:30	53.2	53.2	53.2	64	41.3	0	1	270	0.00	30.151 
08:35	54.5	54.5	54.5	58	40.0	0	2	270	0.00	30.151 
08:40	55.4	55.4	55.4	54	39.0	1	3	270	0.00	30.151 
08:45	56.0	56.0	56.0	52	38.6	1	3	270	0.00	30.142 
08:50	56.6	56.6	56.6	48	37.1	1	3	270	0.00	30.142 
08:55	57.0	57.0	57.0	45	35.9	1	3	270	0.00	30.142 
09:00	57.5	57.5	57.5	48	38.0	1	3	270	0.00	30.146 
09:05	58.3	58.3	58.3	47	38.2	0	2	270	0.00	30.146 
09:10	59.0	59.0	59.0	44	37.1	1	3	270	0.00	30.146 
09:15	59.5	59.5	59.5	43	37.0	1	3	270	0.00	30.153 
09:20	59.8	59.8	59.8	47	39.5	0	1	270	0.00	30.153 
09:25	60.2	60.2	60.2	44	38.2	1	2	270	0.00	30.153 
09:30	60.5	60.5	60.5	45	39.1	0	2	270	0.00	30.153 
09:35	61.3	61.3	61.3	44	39.2	0	1	270	0.00	30.153 
09:40	62.0	62.0	62.0	39	36.8	1	3	270	0.00	30.153 
09:45	62.3	62.3	62.3	39	37.0	1	2	270	0.00	30.156 
09:50	62.7	62.7	62.7	41	38.7	0	2	270	0.00	30.156 
09:55	63.1	63.1	63.1	41	39.0	1	3	270	0.00	30.156 
10:00	63.4	63.4	63.4	44	41.1	0	2	270	0.00	30.157 
10:05	64.0	64.0	64.0	44	41.6	0	1	270	0.00	30.157 
10:10	64.7	64.7	64.7	43	41.7	0	2	270	0.00	30.157 
10:15	64.8	64.8	64.8	39	39.3	0	2	270	0.00	30.158 
10:20	65.0	65.0	65.0	39	39.4	0	3	270	0.00	30.158 
10:25	65.5	65.5	65.5	39	39.9	1	2	270	0.00	30.158 
10:30	65.5	65.5	65.5	40	40.5	1	3	270	0.00	30.163 
10:35	65.8	65.8	65.8	41	41.4	0	1	270	0.00	30.163 
10:40	66.4	66.4	66.4	34	37.2	0	1	270	0.00	30.163 
10:45	66.9	66.9	66.9	33	36.9	0	3	270	0.00	30.157 
10:50	67.3	67.3	67.3	31	35.6	0	2	270	0.00	30.157 
10:55	67.4	67.4	67.4	33	37.3	1	3	270	0.00	30.157 
11:00	67.4	67.4	67.4	33	37.3	1	3	270	0.00	30.155 
11:05	67.9	67.9	67.9	35	39.2	0	2	270	0.00	30.155 
11:10	68.3	68.3	68.3	29	34.8	1	3	270	0.00	30.155 
11:15	68.6	68.6	68.6	35	39.8	0	1	270	0.00	30.159 
11:20	68.8	68.8	68.8	30	36.1	0	1	270	0.00	30.159 
11:25	69.3	69.3	69.3	28	34.8	0	2	270	0.00	30.159 
11:30	69.3	69.3	69.3	28	34.8	0	1	270	0.00	30.151 
11:35	69.3	69.3	69.3	27	33.9	0	1	270	0.00	30.151 
11:40	69.9	69.9	69.9	27	34.4	0	1	270	0.00	30.151 
11:45	70.3	70.3	70.3	27	34.7	1	3	270	0.00	30.156 
11:50	69.6	69.6	69.6	28	35.0	1	3	270	0.00	30.156 
11:55	69.3	69.3	69.3	28	34.8	0	3	270	0.00	30.156 
12:00	69.9	69.9	69.9	29	36.2	1	4	270	0.00	30.160 
12:05	70.1	70.1	70.1	24	31.6	1	4	270	0.00	30.160 
12:10	70.1	70.1	70.1	28	35.5	1	2	270	0.00	30.160 
12:15	70.3	70.3	70.3	25	32.8	1	3	270	0.00	30.157 
12:20	70.8	70.8	70.8	28	36.1	0	2	90	0.00	30.157 
12:25	70.6	70.6	70.6	25	33.1	1	3	90	0.00	30.157 
12:30	70.8	70.8	70.8	27	35.2	1	4	90	0.00	30.161 
12:35	70.4	70.4	70.4	29	36.6	1	3	292	0.00	30.161 
12:40	70.8	70.8	70.8	25	33.2	1	4	292	0.00	30.161 
12:45	71.3	71.3	71.3	26	34.6	1	4	112	0.00	30.162 
12:50	71.6	71.6	71.6	27	35.8	1	3	90	0.00	30.162 
12:55	71.8	71.8	71.8	28	36.9	1	3	90	0.00	30.162 
13:00	71.8	71.8	71.8	28	36.9	1	8	90	0.00	30.159 
13:05	71.6	71.6	71.6	30	38.5	1	3	270	0.00	30.159 
13:10	71.6	71.6	71.6	27	35.8	1	3	135	0.00	30.159 
13:15	72.1	72.1	72.1	27	36.3	1	3	112	0.00	30.153 
13:20	72.3	72.3	72.3	25	34.5	1	4	112	0.00	30.153 
13:25	72.7	72.7	72.7	25	34.8	0	3	112	0.00	30.153 
13:30	72.8	72.8	72.8	27	36.9	1	3	112	0.00	30.149 
13:35	73.0	73.0	73.0	27	37.0	1	3	90	0.00	30.149 
13:40	73.2	73.2	73.2	28	38.1	1	4	68	0.00	30.149 
13:45	72.7	72.7	72.7	26	35.8	2	6	90	0.00	30.151 
13:50	72.5	72.5	72.5	26	35.7	1	2	248	0.00	30.151 
13:55	73.0	73.0	73.0	29	38.9	0	3	248	0.00	30.151 
14:00	73.3	73.3	73.3	28	38.2	1	5	248	0.00	30.150 
14:05	73.3	73.3	73.3	24	34.3	2	4	112	0.00	30.150 
14:10	73.0	73.0	73.0	25	35.1	1	5	112	0.00	30.150 
14:15	73.2	73.2	73.2	25	35.3	1	6	112	0.00	30.150 
14:20	73.2	73.2	73.2	24	34.2	2	6	90	0.00	30.150 
14:25	73.0	73.0	73.0	26	36.1	1	5	90	0.00	30.150 
14:30	73.5	73.5	73.5	27	37.5	1	2	248	0.00	30.150 
14:35	73.7	73.7	73.7	25	35.7	1	3	112	0.00	30.150 
14:40	73.9	73.9	73.9	26	36.8	1	2	112	0.00	30.150 
14:45	74.4	74.4	74.4	25	36.3	1	4	248	0.00	30.142 
14:50	74.2	74.2	74.2	23	34.0	2	6	90	0.00	30.142 
14:55	74.0	74.0	74.0	25	35.9	1	3	90	0.00	30.142 
15:00	74.4	74.4	74.4	24	35.2	0	2	158	0.00	30.143 
15:05	74.7	74.7	74.7	24	35.5	1	5	135	0.00	30.143 
15:10	74.9	74.9	74.9	25	36.7	1	4	202	0.00	30.143 
15:15	75.1	75.1	76.0	20	31.3	1	4	45	0.00	30.144 
15:20	75.1	75.1	76.1	21	32.5	0	2	112	0.00	30.144 
15:25	75.1	75.1	76.2	22	33.6	1	3	112	0.00	30.144 
15:30	75.3	75.3	76.4	23	34.9	0	3	270	0.00	30.137 
15:35	75.4	75.4	76.5	23	35.0	1	5	270	0.00	30.137 
15:40	75.3	75.3	76.2	21	32.7	0	2	270	0.00	30.137 
15:45	75.3	75.3	76.0	19	30.2	2	5	248	0.00	30.138 
15:50	75.1	75.1	76.1	21	32.5	1	5	68	0.00	30.138 
15:55	75.4	75.4	76.7	25	37.1	0	2	68	0.00	30.138 
16:00	75.4	75.4	76.2	20	31.5	1	3	270	0.00	30.136 
16:05	75.4	75.4	76.4	22	33.9	0	2	270	0.00	30.136 
16:10	75.4	75.4	76.2	20	31.5	1	4	292	0.00	30.136 
16:15	75.4	75.4	76.2	20	31.5	1	3	292	0.00	30.138 
16:20	75.4	75.4	76.0	19	30.3	1	4	292	0.00	30.138 
16:25	75.8	75.8	76.8	25	37.5	1	3	68	0.00	30.138 
16:30	75.8	75.8	76.4	21	33.1	1	4	270	0.00	30.137 
16:35	75.6	75.6	76.2	20	31.7	1	3	270	0.00	30.137 
16:40	75.6	75.6	76.2	20	31.7	0	2	270	0.00	30.137 
16:45	75.4	75.4	76.2	20	31.5	1	5	270	0.00	30.135 
16:50	75.4	75.4	75.9	18	28.9	1	4	270	0.00	30.135 
16:55	75.1	75.1	75.7	17	27.3	1	3	270	0.00	30.135 
17:00	75.3	75.3	76.2	21	32.7	0	3	270	0.00	30.133 
17:05	75.6	75.6	76.0	18	29.1	1	5	90	0.00	30.133 
17:10	75.4	75.4	76.0	19	30.3	1	3	90	0.00	30.133 
17:15	75.1	75.1	75.9	19	30.0	1	4	248	0.00	30.130 
17:20	74.9	74.9	74.9	21	32.3	2	4	270	0.00	30.130 
17:25	74.9	74.9	74.9	20	31.1	0	2	270	0.00	30.130 
17:30	75.1	75.1	76.0	20	31.3	0	2	270	0.00	30.130 
17:35	75.3	75.3	76.0	19	30.2	0	2	270	0.00	30.130 
17:40	75.4	75.4	75.9	18	28.9	1	4	270	0.00	30.130 
17:45	75.3	75.3	76.2	21	32.7	1	5	270	0.00	30.128 
17:50	75.3	75.3	76.2	21	32.7	0	1	270	0.00	30.128 
17:55	75.3	75.3	75.9	18	28.9	1	3	270	0.00	30.128 
18:00	74.9	74.9	74.9	19	29.9	1	4	270	0.00	30.128 
18:05	74.9	74.9	74.9	20	31.1	0	1	270	0.00	30.128 
18:10	74.7	74.7	74.7	19	29.7	0	2	270	0.00	30.128 
18:15	74.4	74.4	74.4	20	30.7	0	2	248	0.00	30.126 
18:20	74.2	74.2	74.2	21	31.7	0	2	248	0.00	30.126 
18:25	73.9	73.9	73.9	20	30.3	0	1	248	0.00	30.126 
18:30	73.7	73.7	73.7	21	31.3	0	1	248	0.00	30.123 
18:35	73.7	73.7	73.7	19	28.9	0	1	248	0.00	30.123 
18:40	73.7	73.7	73.7	20	30.1	0	2	248	0.00	30.123 
18:45	73.7	73.7	73.7	20	30.1	1	3	248	0.00	30.122 
18:50	73.9	73.9	73.9	22	32.7	0	2	248	0.00	30.122 
18:55	73.7	73.7	73.7	20	30.1	0	1	248	0.00	30.122 
19:00	73.3	73.3	73.3	20	29.8	0	1	248	0.00	30.122 
19:05	73.2	73.2	73.2	21	30.9	0	1	248	0.00	30.122 
19:10	73.0	73.0	73.0	22	31.9	0	1	248	0.00	30.122 
19:15	72.8	72.8	72.8	21	30.6	0	1	248	0.00	30.115 
19:20	72.7	72.7	72.7	21	30.5	0	2	248	0.00	30.115 
19:25	72.7	72.7	72.7	22	31.7	0	1	248	0.00	30.115 
19:30	72.3	72.3	72.3	24	33.5	0	1	248	0.00	30.116 
19:35	72.1	72.1	72.1	22	31.2	0	1	248	0.00	30.116 
19:40	72.0	72.0	72.0	23	32.2	0	1	248	0.00	30.116 
19:45	71.6	71.6	71.6	22	30.7	0	1	248	0.00	30.116 
19:50	71.3	71.3	71.3	23	31.6	0	0	---	0.00	30.116 
19:55	71.1	71.1	71.1	23	31.4	0	1	248	0.00	30.116 
20:00	70.8	70.8	70.8	23	31.2	0	0	---	0.00	30.118 
20:05	70.4	70.4	70.4	24	31.9	0	1	248	0.00	30.118 
20:10	70.3	70.3	70.3	24	31.8	0	0	---	0.00	30.118 
20:15	69.9	69.9	69.9	25	32.5	0	0	---	0.00	30.111 
20:20	69.4	69.4	69.4	25	32.0	0	0	---	0.00	30.111 
20:25	69.1	69.1	69.1	25	31.8	0	0	---	0.00	30.111 
20:30	68.8	68.8	68.8	26	32.5	0	0	---	0.00	30.121 
20:35	68.3	68.3	68.3	26	32.1	0	0	---	0.00	30.121 
20:40	67.8	67.8	67.8	26	31.7	0	0	---	0.00	30.121 
20:45	67.4	67.4	67.4	27	32.3	0	0	---	0.00	30.126 
20:50	66.9	66.9	66.9	28	32.7	0	0	---	0.00	30.126 
20:55	66.4	66.4	66.4	27	31.4	0	0	---	0.00	30.126 
21:00	66.0	66.0	66.0	29	32.8	0	0	---	0.00	30.128 
21:05	65.5	65.5	65.5	30	33.2	0	0	---	0.00	30.128 
21:10	65.0	65.0	65.0	32	34.4	0	0	---	0.00	30.128 
21:15	64.3	64.3	64.3	33	34.6	0	0	---	0.00	30.126 
21:20	63.9	63.9	63.9	35	35.7	0	0	---	0.00	30.126 
21:25	63.4	63.4	63.4	35	35.3	0	0	---	0.00	30.126 
21:30	62.9	62.9	62.9	37	36.2	0	0	---	0.00	30.131 
21:35	62.3	62.3	62.3	38	36.4	0	0	---	0.00	30.131 
21:40	61.6	61.6	61.6	38	35.7	0	0	---	0.00	30.131 
21:45	61.2	61.2	61.2	39	36.0	0	0	---	0.00	30.137 
21:50	60.9	60.9	60.9	39	35.8	0	0	---	0.00	30.137 
21:55	60.4	60.4	60.4	40	36.0	0	0	---	0.00	30.137 
22:00	60.1	60.1	60.1	41	36.3	0	0	---	0.00	30.143 
22:05	59.6	59.6	59.6	42	36.5	0	0	---	0.00	30.143 
22:10	59.2	59.2	59.2	43	36.7	0	0	---	0.00	30.143 
22:15	58.9	58.9	58.9	44	37.0	0	0	---	0.00	30.143 
22:20	58.6	58.6	58.6	45	37.3	0	0	---	0.00	30.143 
22:25	58.3	58.3	58.3	46	37.6	0	0	---	0.00	30.143 
22:30	58.1	58.1	58.1	47	38.0	0	0	---	0.00	30.151 
22:35	57.8	57.8	57.8	47	37.7	0	0	---	0.00	30.151 
22:40	57.5	57.5	57.5	48	38.0	0	0	---	0.00	30.151 
22:45	57.2	57.2	57.2	48	37.7	0	0	---	0.00	30.150 
22:50	56.9	56.9	56.9	49	37.9	0	0	---	0.00	30.150 
22:55	56.7	56.7	56.7	49	37.8	0	0	---	0.00	30.150 
23:00	56.5	56.5	56.5	50	38.1	0	0	---	0.00	30.146 
23:05	56.3	56.3	56.3	50	37.9	0	0	---	0.00	30.146 
23:10	56.0	56.0	56.0	50	37.6	0	0	---	0.00	30.146 
23:15	55.9	55.9	55.9	51	38.0	0	0	---	0.00	30.143 
23:20	55.7	55.7	55.7	52	38.3	0	0	---	0.00	30.143 
23:25	55.4	55.4	55.4	53	38.6	0	0	---	0.00	30.143 
23:30	55.3	55.3	55.3	53	38.5	0	0	---	0.00	30.145 
23:35	55.1	55.1	55.1	54	38.8	0	0	---	0.00	30.145 
23:40	54.8	54.8	54.8	54	38.5	0	0	---	0.00	30.145 
23:45	54.7	54.7	54.7	54	38.4	0	0	---	0.00	30.145 
23:50	54.5	54.5	54.5	56	39.1	0	0	---	0.00	30.145 
23:55	54.4	54.4	54.4	56	39.0	0	0	---	0.00	30.145 

CoCoRaHS
IN-AL-39
A2 Web Hosting
Creative Commons License
GoDaddy
search engine by freefind advanced

loaded 2018-11-22 06:28:22 • last modified 2010-11-18 10:43:29
Privacy PolicyDisclaimer
• wx.awcolley.com is powered by PmWiki v.2002016 •
• all content (unless otherwise noted) © 2018 A W Colley